createdAt,value
2018-07-15T00:01:17.752Z,2.47
2018-07-15T00:03:46.349Z,2.40
2018-07-15T00:06:15.656Z,2.23
2018-07-15T00:08:44.265Z,2.40
2018-07-15T00:11:12.869Z,2.60
2018-07-15T00:13:41.501Z,2.30
2018-07-15T00:16:10.101Z,2.70
2018-07-15T00:18:38.681Z,2.40
2018-07-15T00:21:07.810Z,2.57
2018-07-15T00:23:36.396Z,2.70
2018-07-15T00:26:05.512Z,2.60
2018-07-15T00:28:34.909Z,2.50
2018-07-15T00:31:03.522Z,2.43
2018-07-15T00:33:32.829Z,2.90
2018-07-15T00:36:02.576Z,2.70
2018-07-15T00:38:31.168Z,2.83
2018-07-15T00:40:59.782Z,2.53
2018-07-15T00:43:28.489Z,3.13
2018-07-15T00:45:57.085Z,2.57
2018-07-15T00:48:25.662Z,2.30
2018-07-15T00:50:54.293Z,1.87
2018-07-15T00:53:22.894Z,2.30
2018-07-15T00:55:52.061Z,2.67
2018-07-15T00:58:20.618Z,3.00
2018-07-15T01:00:54.514Z,2.70
2018-07-15T01:03:23.104Z,2.63
2018-07-15T01:05:51.679Z,2.30
2018-07-15T01:08:20.911Z,2.77
2018-07-15T01:10:49.502Z,2.57
2018-07-15T01:13:18.096Z,2.80
2018-07-15T01:15:46.695Z,2.60
2018-07-15T01:18:15.341Z,2.77
2018-07-15T01:20:44.123Z,2.33
2018-07-15T01:23:12.918Z,2.63
2018-07-15T01:25:41.533Z,2.47
2018-07-15T01:28:10.398Z,2.33
2018-07-15T01:30:39.423Z,3.00
2018-07-15T01:33:08.285Z,2.83
2018-07-15T01:35:36.860Z,2.60
2018-07-15T01:38:05.795Z,2.50
2018-07-15T01:40:34.382Z,2.90
2018-07-15T01:43:03.032Z,3.20
2018-07-15T01:45:31.830Z,2.63
2018-07-15T01:48:00.409Z,2.93
2018-07-15T01:50:29.136Z,3.00
2018-07-15T01:52:58.637Z,2.80
2018-07-15T01:55:27.221Z,2.70
2018-07-15T01:57:55.947Z,2.97
2018-07-15T02:00:25.499Z,2.87
2018-07-15T02:02:54.439Z,3.03
2018-07-15T02:05:23.032Z,3.23
2018-07-15T02:07:51.897Z,3.17
2018-07-15T02:10:20.585Z,2.73
2018-07-15T02:12:49.392Z,3.50
2018-07-15T02:15:17.994Z,2.87
2018-07-15T02:17:46.577Z,2.83
2018-07-15T02:20:15.966Z,3.50
2018-07-15T02:22:44.755Z,3.00
2018-07-15T02:25:13.336Z,3.10
2018-07-15T02:27:41.974Z,3.40
2018-07-15T02:30:10.581Z,3.53
2018-07-15T02:32:44.898Z,3.30
2018-07-15T02:35:24.182Z,2.77
2018-07-15T02:37:56.983Z,3.33
2018-07-15T02:40:29.372Z,3.07
2018-07-15T02:43:01.640Z,3.33
2018-07-15T02:45:29.950Z,3.50
2018-07-15T02:47:58.599Z,3.57
2018-07-15T02:50:27.620Z,3.23
2018-07-15T02:52:56.821Z,2.93
2018-07-15T02:55:26.169Z,3.80
2018-07-15T02:57:56.416Z,3.27
2018-07-15T03:00:28.672Z,3.60
2018-07-15T03:02:58.433Z,3.20
2018-07-15T03:05:27.044Z,3.67
2018-07-15T03:07:55.873Z,3.53
2018-07-15T03:10:24.595Z,3.17
2018-07-15T03:12:53.226Z,3.37
2018-07-15T03:15:21.823Z,3.60
2018-07-15T03:17:50.738Z,3.33
2018-07-15T03:20:19.323Z,3.60
2018-07-15T03:22:47.898Z,3.70
2018-07-15T03:25:18.897Z,3.50
2018-07-15T03:27:47.562Z,3.57
2018-07-15T03:30:16.246Z,4.37
2018-07-15T03:32:44.841Z,3.83
2018-07-15T03:35:13.425Z,3.80
2018-07-15T03:37:42.148Z,4.60
2018-07-15T03:40:10.993Z,3.87
2018-07-15T03:42:39.602Z,4.63
2018-07-15T03:45:08.205Z,4.30
2018-07-15T03:47:36.797Z,4.17
2018-07-15T03:50:05.425Z,4.30
2018-07-15T03:52:33.994Z,4.80
2018-07-15T03:55:03.433Z,4.87
2018-07-15T03:57:32.067Z,4.57
2018-07-15T04:00:00.324Z,4.30
2018-07-15T04:02:28.901Z,5.00
2018-07-15T04:04:57.484Z,4.73
2018-07-15T04:07:25.772Z,4.90
2018-07-15T04:09:55.060Z,4.60
2018-07-15T04:12:23.654Z,4.90
2018-07-15T04:14:52.240Z,5.30
2018-07-15T04:17:20.877Z,4.83
2018-07-15T04:19:50.272Z,4.00
2018-07-15T04:22:19.383Z,4.93
2018-07-15T04:24:47.980Z,5.57
2018-07-15T04:27:16.573Z,5.00
2018-07-15T04:29:44.799Z,4.70
2018-07-15T04:32:13.379Z,4.90
2018-07-15T04:34:41.963Z,5.83
2018-07-15T04:37:10.579Z,6.40
2018-07-15T04:39:39.203Z,5.57
2018-07-15T04:42:07.812Z,5.27
2018-07-15T04:44:36.425Z,5.23
2018-07-15T04:47:05.098Z,5.83
2018-07-15T04:49:33.669Z,5.17
2018-07-15T04:52:02.974Z,5.23
2018-07-15T04:54:31.555Z,5.27
2018-07-15T04:57:00.149Z,4.60
2018-07-15T04:59:28.796Z,5.60
2018-07-15T05:01:57.405Z,4.67
2018-07-15T05:04:26.023Z,5.30
2018-07-15T05:06:54.621Z,5.20
2018-07-15T05:09:23.257Z,4.97
2018-07-15T05:11:51.875Z,4.97
2018-07-15T05:14:20.470Z,5.07
2018-07-15T05:16:49.056Z,5.20
2018-07-15T05:19:17.685Z,4.77
2018-07-15T05:21:46.281Z,5.33
2018-07-15T05:24:15.079Z,5.10
2018-07-15T05:26:43.656Z,4.93
2018-07-15T05:29:12.257Z,4.97
2018-07-15T05:31:40.828Z,5.57
2018-07-15T05:34:09.408Z,4.67
2018-07-15T05:36:38.015Z,5.07
2018-07-15T05:39:06.872Z,4.70
2018-07-15T05:41:35.465Z,5.13
2018-07-15T05:44:04.926Z,5.10
2018-07-15T05:46:33.561Z,4.87
2018-07-15T05:49:02.934Z,4.65
2018-07-15T05:51:31.553Z,4.83
2018-07-15T05:54:00.478Z,4.77
2018-07-15T05:56:29.092Z,5.03
2018-07-15T05:58:57.679Z,4.50
2018-07-15T06:01:26.401Z,5.13
2018-07-15T06:03:54.981Z,5.43
2018-07-15T06:06:24.065Z,5.60
2018-07-15T06:08:53.231Z,4.63
2018-07-15T06:11:21.900Z,4.87
2018-07-15T06:13:50.611Z,5.20
2018-07-15T06:16:19.413Z,5.17
2018-07-15T06:18:48.133Z,4.93
2018-07-15T06:21:17.895Z,4.77
2018-07-15T06:23:46.534Z,4.97
2018-07-15T06:26:15.189Z,5.30
2018-07-15T06:28:43.769Z,5.07
2018-07-15T06:31:12.382Z,5.10
2018-07-15T06:33:40.974Z,4.83
2018-07-15T06:36:10.165Z,4.60
2018-07-15T06:38:38.765Z,4.33
2018-07-15T06:41:07.509Z,4.90
2018-07-15T06:43:36.086Z,4.10
2018-07-15T06:46:05.362Z,4.57
2018-07-15T06:48:34.006Z,4.77
2018-07-15T06:51:03.358Z,4.87
2018-07-15T06:53:31.948Z,4.87
2018-07-15T06:56:00.634Z,4.90
2018-07-15T06:58:29.249Z,5.57
2018-07-15T07:00:57.835Z,4.90
2018-07-15T07:03:26.840Z,4.37
2018-07-15T07:05:56.488Z,4.60
2018-07-15T07:08:25.101Z,4.80
2018-07-15T07:10:54.392Z,4.37
2018-07-15T07:13:22.956Z,4.27
2018-07-15T07:15:51.621Z,5.23
2018-07-15T07:18:21.223Z,4.50
2018-07-15T07:20:50.532Z,4.50
2018-07-15T07:23:19.120Z,4.20
2018-07-15T07:25:47.795Z,4.50
2018-07-15T07:28:16.590Z,4.63
2018-07-15T07:30:45.267Z,4.33
2018-07-15T07:33:14.445Z,4.40
2018-07-15T07:35:43.135Z,4.80
2018-07-15T07:38:11.712Z,4.43
2018-07-15T07:40:40.300Z,4.50
2018-07-15T07:43:08.906Z,4.40
2018-07-15T07:45:37.626Z,4.70
2018-07-15T07:48:06.534Z,3.90
2018-07-15T07:50:35.181Z,3.63
2018-07-15T07:53:03.831Z,3.57
2018-07-15T07:55:32.437Z,2.80
2018-07-15T07:58:01.082Z,2.90
2018-07-15T08:00:30.807Z,3.37
2018-07-15T08:02:59.478Z,3.47
2018-07-15T08:05:28.071Z,3.27
2018-07-15T08:07:56.660Z,2.80
2018-07-15T08:10:25.308Z,3.40
2018-07-15T08:12:53.891Z,2.87
2018-07-15T08:15:22.563Z,2.37
2018-07-15T08:17:51.106Z,2.17
2018-07-15T08:20:19.707Z,2.13
2018-07-15T08:22:49.059Z,2.57
2018-07-15T08:25:17.663Z,2.80
2018-07-15T08:27:46.285Z,2.83
2018-07-15T08:30:26.097Z,2.30
2018-07-15T08:32:54.694Z,2.30
2018-07-15T08:35:23.393Z,2.17
2018-07-15T08:37:52.178Z,1.97
2018-07-15T08:40:20.873Z,1.60
2018-07-15T08:42:50.541Z,2.23
2018-07-15T08:45:20.684Z,2.30
2018-07-15T08:47:49.369Z,1.67
2018-07-15T08:50:18.703Z,1.87
2018-07-15T08:52:47.326Z,2.30
2018-07-15T08:55:16.009Z,2.47
2018-07-15T08:57:44.605Z,2.80
2018-07-15T09:00:13.199Z,1.90
2018-07-15T09:02:41.845Z,1.90
2018-07-15T09:05:10.504Z,2.23
2018-07-15T09:07:38.744Z,1.40
2018-07-15T09:10:07.681Z,1.00
2018-07-15T09:12:36.533Z,1.33
2018-07-15T09:15:05.446Z,1.30
2018-07-15T09:17:34.147Z,1.27
2018-07-15T09:20:02.872Z,1.37
2018-07-15T09:22:31.521Z,1.13
2018-07-15T09:25:00.132Z,0.97
2018-07-15T09:27:29.308Z,1.05
2018-07-15T09:29:57.918Z,1.40
2018-07-15T09:32:26.164Z,1.50
2018-07-15T09:34:55.676Z,1.07
2018-07-15T09:37:24.312Z,0.63
2018-07-15T09:39:53.127Z,0.90
2018-07-15T09:42:21.729Z,1.10
2018-07-15T09:44:50.365Z,0.90
2018-07-15T09:47:18.984Z,0.93
2018-07-15T09:49:48.045Z,1.00
2018-07-15T09:52:16.784Z,1.23
2018-07-15T10:06:09.391Z,0.93
2018-07-15T10:14:19.529Z,2.03
2018-07-15T10:16:48.749Z,0.77
2018-07-15T10:19:17.515Z,1.77
2018-07-15T10:21:46.457Z,1.53
2018-07-15T10:24:15.957Z,1.87
2018-07-15T10:26:44.624Z,1.00
2018-07-15T10:29:12.916Z,1.20
2018-07-15T10:31:41.528Z,0.93
2018-07-15T10:34:10.749Z,0.87
2018-07-15T10:36:40.100Z,0.70
2018-07-15T10:39:08.723Z,0.70
2018-07-15T10:41:37.016Z,0.67
2018-07-15T10:44:06.222Z,0.77
2018-07-15T10:46:35.612Z,0.80
2018-07-15T10:49:04.620Z,0.50
2018-07-15T10:51:33.844Z,0.67
2018-07-15T10:54:03.360Z,0.78
2018-07-15T10:56:32.677Z,0.57
2018-07-15T10:59:01.513Z,1.10
2018-07-15T11:01:30.137Z,0.70
2018-07-15T11:03:59.410Z,0.50
2018-07-15T11:06:28.284Z,0.50
2018-07-15T11:08:57.451Z,1.17
2018-07-15T11:11:26.263Z,0.60
2018-07-15T11:13:54.767Z,0.50
2018-07-15T11:16:23.389Z,0.60
2018-07-15T11:18:51.990Z,0.63
2018-07-15T11:21:20.550Z,0.60
2018-07-15T11:23:49.206Z,0.60
2018-07-15T11:26:17.769Z,0.60
2018-07-15T11:28:46.497Z,0.57
2018-07-15T11:31:15.100Z,0.50
2018-07-15T11:33:44.554Z,0.70
2018-07-15T11:36:13.125Z,0.50
2018-07-15T11:38:41.665Z,0.50
2018-07-15T11:41:10.243Z,0.60
2018-07-15T11:43:39.159Z,0.70
2018-07-15T11:46:07.940Z,0.70
2018-07-15T11:48:36.677Z,0.40
2018-07-15T11:51:05.463Z,0.60
2018-07-15T11:53:34.400Z,0.70
2018-07-15T11:56:03.876Z,0.40
2018-07-15T11:58:32.794Z,0.50
2018-07-15T12:01:03.697Z,0.53
2018-07-15T12:03:32.534Z,1.03
2018-07-15T12:06:01.679Z,0.53
2018-07-15T12:08:30.438Z,0.50
2018-07-15T12:10:59.573Z,0.60
2018-07-15T12:13:28.428Z,0.70
2018-07-15T12:15:57.313Z,0.50
2018-07-15T12:18:27.170Z,0.60
2018-07-15T12:20:55.971Z,0.50
2018-07-15T12:23:24.997Z,0.30
2018-07-15T12:25:53.985Z,0.80
2018-07-15T12:28:23.615Z,0.50
2018-07-15T12:30:52.562Z,0.40
2018-07-15T12:33:21.621Z,0.60
2018-07-15T12:35:50.786Z,0.30
2018-07-15T12:38:20.114Z,0.47
2018-07-15T12:40:48.670Z,0.50
2018-07-15T12:43:17.317Z,0.47
2018-07-15T12:45:46.522Z,0.40
2018-07-15T12:48:15.089Z,0.60
2018-07-15T12:50:43.645Z,0.53
2018-07-15T12:53:12.206Z,0.50
2018-07-15T12:55:40.735Z,0.47
2018-07-15T12:58:09.264Z,0.40
2018-07-15T13:00:37.782Z,0.50
2018-07-15T13:03:06.320Z,0.33
2018-07-15T13:05:34.845Z,0.30
2018-07-15T13:08:04.025Z,0.47
2018-07-15T13:10:33.459Z,0.53
2018-07-15T13:13:01.983Z,0.40
2018-07-15T13:15:30.573Z,0.40
2018-07-15T13:17:59.109Z,0.40
2018-07-15T13:20:27.633Z,0.70
2018-07-15T13:22:55.856Z,0.50
2018-07-15T13:25:24.402Z,0.60
2018-07-15T13:27:52.962Z,0.30
2018-07-15T13:30:22.267Z,0.30
2018-07-15T13:32:50.786Z,0.33
2018-07-15T13:35:19.855Z,0.40
2018-07-15T13:37:48.384Z,0.57
2018-07-15T13:40:16.918Z,0.57
2018-07-15T13:42:45.505Z,0.50
2018-07-15T13:45:14.018Z,0.60
2018-07-15T13:47:42.545Z,1.57
2018-07-15T13:50:11.183Z,0.90
2018-07-15T13:52:39.726Z,0.50
2018-07-15T13:55:08.453Z,0.57
2018-07-15T13:57:37.089Z,0.50
2018-07-15T14:00:07.341Z,0.47
2018-07-15T14:02:36.057Z,0.80
2018-07-15T14:05:05.097Z,0.57
2018-07-15T14:07:33.640Z,0.50
2018-07-15T14:10:02.806Z,0.50
2018-07-15T14:12:31.991Z,0.73
2018-07-15T14:15:01.174Z,0.93
2018-07-15T14:17:30.391Z,0.50
2018-07-15T14:19:58.999Z,0.60
2018-07-15T14:22:27.553Z,0.83
2018-07-15T14:24:56.100Z,0.70
2018-07-15T14:27:24.674Z,0.83
2018-07-15T14:29:53.181Z,0.60
2018-07-15T14:32:21.736Z,1.00
2018-07-15T14:34:50.470Z,0.80
2018-07-15T14:37:19.090Z,0.50
2018-07-15T14:39:49.114Z,0.70
2018-07-15T14:42:17.647Z,0.70
2018-07-15T14:44:46.277Z,0.70
2018-07-15T14:47:14.884Z,0.60
2018-07-15T14:49:43.446Z,0.70
2018-07-15T14:52:12.004Z,0.75
2018-07-15T14:54:40.843Z,0.78
2018-07-15T14:57:09.435Z,0.65
2018-07-15T14:59:38.037Z,0.50
2018-07-15T15:02:06.669Z,0.75
2018-07-15T15:04:34.837Z,0.70
2018-07-15T15:07:03.402Z,0.42
2018-07-15T15:09:31.980Z,0.80
2018-07-15T15:12:00.521Z,0.60
2018-07-15T15:14:29.114Z,0.70
2018-07-15T15:16:57.696Z,0.50
2018-07-15T15:19:26.240Z,0.70
2018-07-15T15:21:54.770Z,0.50
2018-07-15T15:24:23.290Z,0.73
2018-07-15T15:26:52.730Z,0.43
2018-07-15T15:29:21.249Z,0.60
2018-07-15T15:31:50.379Z,0.50
2018-07-15T15:34:19.019Z,0.50
2018-07-15T15:36:47.542Z,0.50
2018-07-15T15:39:16.057Z,1.67
2018-07-15T15:41:45.910Z,0.30
2018-07-15T15:44:15.178Z,0.63
2018-07-15T15:46:44.495Z,0.60
2018-07-15T15:49:13.004Z,0.50
2018-07-15T15:51:41.537Z,0.67
2018-07-15T15:54:10.106Z,0.93
2018-07-15T15:56:38.919Z,0.60
2018-07-15T15:59:07.514Z,0.60
2018-07-15T16:01:36.045Z,0.60
2018-07-15T16:04:04.684Z,0.50
2018-07-15T16:06:33.323Z,0.63
2018-07-15T16:09:01.948Z,0.50
2018-07-15T16:11:30.502Z,0.50
2018-07-15T16:13:59.039Z,0.53
2018-07-15T16:16:28.041Z,0.73
2018-07-15T16:18:56.535Z,1.10
2018-07-15T16:21:25.095Z,0.80
2018-07-15T16:23:53.650Z,0.70
2018-07-15T16:26:22.274Z,1.10
2018-07-15T16:28:50.949Z,0.90
2018-07-15T16:31:19.475Z,0.60
2018-07-15T16:33:48.078Z,0.80
2018-07-15T16:36:16.634Z,0.70
2018-07-15T16:38:45.190Z,0.87
2018-07-15T16:41:13.714Z,0.70
2018-07-15T16:43:42.329Z,0.70
2018-07-15T16:46:10.896Z,0.70
2018-07-15T16:48:39.427Z,0.93
2018-07-15T16:51:08.631Z,0.70
2018-07-15T16:53:37.109Z,0.97
2018-07-15T16:56:06.581Z,1.27
2018-07-15T16:58:35.144Z,0.83
2018-07-15T17:01:03.682Z,0.83
2018-07-15T17:03:32.227Z,0.90
2018-07-15T17:06:00.771Z,1.10
2018-07-15T17:08:29.523Z,0.80
2018-07-15T17:10:58.342Z,0.97
2018-07-15T17:13:27.596Z,0.73
2018-07-15T17:15:56.128Z,0.80
2018-07-15T17:18:24.735Z,0.90
2018-07-15T17:20:53.109Z,0.80
2018-07-15T17:23:21.691Z,1.00
2018-07-15T17:25:50.319Z,1.03
2018-07-15T17:28:18.945Z,1.67
2018-07-15T17:30:47.468Z,1.57
2018-07-15T17:33:15.878Z,1.67
2018-07-15T17:35:44.458Z,1.63
2018-07-15T17:38:13.051Z,1.33
2018-07-15T17:40:42.141Z,1.10
2018-07-15T17:43:10.687Z,1.03
2018-07-15T17:45:39.546Z,0.80
2018-07-15T17:48:08.067Z,0.80
2018-07-15T17:50:36.627Z,0.90
2018-07-15T17:53:05.536Z,0.90
2018-07-15T17:55:34.064Z,1.10
2018-07-15T17:58:02.642Z,0.97
2018-07-15T18:00:31.708Z,0.90
2018-07-15T18:03:00.246Z,1.00
2018-07-15T18:05:29.067Z,1.17
2018-07-15T18:07:57.594Z,0.70
2018-07-15T18:10:26.672Z,0.80
2018-07-15T18:12:55.462Z,0.60
2018-07-15T18:15:24.023Z,0.73
2018-07-15T18:17:52.600Z,1.60
2018-07-15T18:20:21.416Z,1.00
2018-07-15T18:22:49.953Z,1.00
2018-07-15T18:25:18.934Z,0.90
2018-07-15T18:27:47.829Z,1.00
2018-07-15T18:30:16.746Z,1.73
2018-07-15T18:32:45.706Z,0.90
2018-07-15T18:35:14.577Z,0.77
2018-07-15T18:37:43.511Z,1.67
2018-07-15T18:40:12.397Z,1.00
2018-07-15T18:42:41.549Z,1.00
2018-07-15T18:45:10.869Z,1.57
2018-07-15T18:47:39.886Z,1.20
2018-07-15T18:50:09.063Z,1.00
2018-07-15T18:52:37.986Z,1.00
2018-07-15T18:55:06.861Z,1.80
2018-07-15T18:57:35.924Z,0.90
2018-07-15T19:00:05.023Z,1.10
2018-07-15T19:02:33.955Z,1.10
2018-07-15T19:05:02.968Z,1.00
2018-07-15T19:10:22.846Z,1.00
2018-07-15T19:18:42.593Z,0.90
2018-07-15T19:21:11.979Z,1.47
2018-07-15T19:23:41.059Z,1.20
2018-07-15T19:26:10.026Z,1.80
2018-07-15T19:28:39.107Z,1.40
2018-07-15T19:31:07.846Z,1.10
2018-07-15T19:33:36.680Z,1.10
2018-07-15T19:36:06.355Z,1.40
2018-07-15T19:38:35.350Z,0.90
2018-07-15T19:41:03.977Z,1.47
2018-07-15T19:43:32.641Z,0.90
2018-07-15T19:46:01.347Z,1.07
2018-07-15T19:48:30.132Z,1.00
2018-07-15T19:50:59.641Z,1.30
2018-07-15T19:53:28.385Z,1.10
2018-07-15T19:56:01.106Z,0.97
2018-07-15T19:58:30.400Z,0.97
2018-07-15T20:00:59.095Z,1.07
2018-07-15T20:03:28.554Z,1.30
2018-07-15T20:05:58.135Z,1.20
2018-07-15T20:08:26.778Z,1.00
2018-07-15T20:10:56.137Z,1.10
2018-07-15T20:13:25.354Z,1.20
2018-07-15T20:15:54.034Z,1.63
2018-07-15T20:18:22.734Z,1.20
2018-07-15T20:20:51.404Z,1.30
2018-07-15T20:23:22.008Z,1.53
2018-07-15T20:25:50.629Z,1.27
2018-07-15T20:28:19.467Z,1.43
2018-07-15T20:30:48.746Z,1.40
2018-07-15T20:33:18.106Z,1.20
2018-07-15T20:35:46.773Z,1.20
2018-07-15T20:38:15.466Z,1.40
2018-07-15T20:40:45.056Z,1.20
2018-07-15T20:43:13.727Z,1.30
2018-07-15T20:45:42.361Z,1.20
2018-07-15T20:48:11.631Z,1.20
2018-07-15T20:50:40.322Z,1.40
2018-07-15T20:53:08.994Z,1.00
2018-07-15T20:55:37.678Z,1.57
2018-07-15T20:58:06.310Z,1.20
2018-07-15T21:00:34.937Z,1.40
2018-07-15T21:03:03.581Z,1.00
2018-07-15T21:05:32.157Z,1.37
2018-07-15T21:08:00.838Z,1.27
2018-07-15T21:10:30.274Z,1.10
2018-07-15T21:12:59.631Z,1.30
2018-07-15T21:15:28.221Z,1.20
2018-07-15T21:17:56.862Z,1.20
2018-07-15T21:20:25.448Z,1.67
2018-07-15T21:22:54.768Z,1.40
2018-07-15T21:25:23.654Z,1.40
2018-07-15T21:27:52.276Z,1.13
2018-07-15T21:30:20.869Z,1.57
2018-07-15T21:32:49.573Z,1.30
2018-07-15T21:35:18.167Z,0.90
2018-07-15T21:37:47.731Z,1.20
2018-07-15T21:40:17.827Z,1.30
2018-07-15T21:42:46.426Z,1.10
2018-07-15T21:45:15.042Z,1.40
2018-07-15T21:47:43.725Z,1.30
2018-07-15T21:50:12.915Z,1.00
2018-07-15T21:52:41.452Z,1.10
2018-07-15T21:55:10.116Z,1.37
2018-07-15T21:57:38.740Z,1.43
2018-07-15T22:00:08.158Z,1.40
2018-07-15T22:02:37.044Z,1.50
2018-07-15T22:05:05.775Z,1.20
2018-07-15T22:07:45.445Z,1.90
2018-07-15T22:10:51.081Z,1.37
2018-07-15T22:13:19.675Z,1.33
2018-07-15T22:15:48.254Z,1.20
2018-07-15T22:18:17.342Z,1.47
2018-07-15T22:20:46.071Z,1.37
2018-07-15T22:23:14.700Z,1.60
2018-07-15T22:25:43.485Z,1.30
2018-07-15T22:28:14.182Z,1.20
2018-07-15T22:30:43.451Z,1.50
2018-07-15T22:33:11.703Z,1.33
2018-07-15T22:35:40.355Z,1.90
2018-07-15T22:38:10.310Z,1.50
2018-07-15T22:40:38.984Z,1.50
2018-07-15T22:43:08.166Z,1.60
2018-07-15T22:45:36.758Z,1.63
2018-07-15T22:48:05.460Z,1.80
2018-07-15T22:50:34.037Z,1.63
2018-07-15T22:53:02.641Z,1.90
2018-07-15T22:55:31.313Z,1.70
2018-07-15T22:58:00.369Z,1.57
2018-07-15T23:00:29.014Z,2.00
2018-07-15T23:02:57.598Z,2.13
2018-07-15T23:06:36.717Z,2.03
2018-07-15T23:09:06.571Z,1.90
2018-07-15T23:11:35.879Z,1.60
2018-07-15T23:14:04.514Z,1.90
2018-07-15T23:16:33.956Z,1.60
2018-07-15T23:19:02.559Z,1.87
2018-07-15T23:21:32.486Z,1.53
2018-07-15T23:24:01.667Z,1.97
2018-07-15T23:26:30.434Z,2.20
2018-07-15T23:28:59.036Z,2.20
2018-07-15T23:31:27.667Z,1.77
2018-07-15T23:33:56.779Z,1.50
2018-07-15T23:36:25.609Z,1.70
2018-07-15T23:38:54.496Z,1.63
2018-07-15T23:41:23.098Z,1.90
2018-07-15T23:43:51.707Z,1.73
2018-07-15T23:46:21.049Z,1.82
2018-07-15T23:48:49.703Z,2.00
2018-07-15T23:51:18.423Z,2.10
2018-07-15T23:53:46.997Z,1.97
2018-07-15T23:56:15.689Z,1.87
2018-07-15T23:58:44.266Z,2.10
